sensor_id;sensor_type;location;lat;lon;timestamp;P1;durP1;ratioP1;P2;durP2;ratioP2
6203;SDS011;3135;42.602;23.468;2023-10-13T00:01:53;10.00;;;4.43;;
6203;SDS011;3135;42.602;23.468;2023-10-13T00:04:19;7.30;;;3.50;;
6203;SDS011;3135;42.602;23.468;2023-10-13T00:06:50;6.50;;;3.30;;
6203;SDS011;3135;42.602;23.468;2023-10-13T00:09:17;4.95;;;2.95;;
6203;SDS011;3135;42.602;23.468;2023-10-13T00:11:44;6.17;;;3.47;;
6203;SDS011;3135;42.602;23.468;2023-10-13T00:14:10;5.63;;;2.73;;
6203;SDS011;3135;42.602;23.468;2023-10-13T00:16:41;8.65;;;3.33;;
6203;SDS011;3135;42.602;23.468;2023-10-13T00:19:08;5.53;;;3.00;;
6203;SDS011;3135;42.602;23.468;2023-10-13T00:21:35;5.13;;;2.70;;
6203;SDS011;3135;42.602;23.468;2023-10-13T00:24:01;5.77;;;3.13;;
6203;SDS011;3135;42.602;23.468;2023-10-13T00:26:31;4.80;;;3.38;;
6203;SDS011;3135;42.602;23.468;2023-10-13T00:29:01;7.10;;;3.22;;
6203;SDS011;3135;42.602;23.468;2023-10-13T00:31:40;5.47;;;2.90;;
6203;SDS011;3135;42.602;23.468;2023-10-13T00:34:07;5.18;;;3.10;;
6203;SDS011;3135;42.602;23.468;2023-10-13T00:36:37;7.72;;;3.20;;
6203;SDS011;3135;42.602;23.468;2023-10-13T00:39:22;6.40;;;3.25;;
6203;SDS011;3135;42.602;23.468;2023-10-13T00:41:48;5.18;;;3.25;;
6203;SDS011;3135;42.602;23.468;2023-10-13T00:44:24;4.75;;;3.03;;
6203;SDS011;3135;42.602;23.468;2023-10-13T00:47:09;5.10;;;3.23;;
6203;SDS011;3135;42.602;23.468;2023-10-13T00:49:42;4.63;;;3.15;;
6203;SDS011;3135;42.602;23.468;2023-10-13T00:52:13;5.82;;;3.30;;
6203;SDS011;3135;42.602;23.468;2023-10-13T00:54:41;5.38;;;2.88;;
6203;SDS011;3135;42.602;23.468;2023-10-13T00:57:13;5.30;;;3.17;;
6203;SDS011;3135;42.602;23.468;2023-10-13T00:59:52;7.45;;;4.30;;
6203;SDS011;3135;42.602;23.468;2023-10-13T01:02:22;13.32;;;5.78;;
6203;SDS011;3135;42.602;23.468;2023-10-13T01:05:06;6.88;;;3.92;;
6203;SDS011;3135;42.602;23.468;2023-10-13T01:07:36;4.95;;;3.45;;
6203;SDS011;3135;42.602;23.468;2023-10-13T01:10:04;5.72;;;3.55;;
6203;SDS011;3135;42.602;23.468;2023-10-13T01:12:39;5.97;;;3.40;;
6203;SDS011;3135;42.602;23.468;2023-10-13T01:15:07;6.10;;;3.30;;
6203;SDS011;3135;42.602;23.468;2023-10-13T01:17:37;6.68;;;3.15;;
6203;SDS011;3135;42.602;23.468;2023-10-13T01:20:03;6.70;;;3.63;;
6203;SDS011;3135;42.602;23.468;2023-10-13T01:22:31;6.97;;;3.40;;
6203;SDS011;3135;42.602;23.468;2023-10-13T01:24:57;6.78;;;3.40;;
6203;SDS011;3135;42.602;23.468;2023-10-13T01:27:31;5.93;;;3.00;;
6203;SDS011;3135;42.602;23.468;2023-10-13T01:29:56;12.13;;;3.63;;
6203;SDS011;3135;42.602;23.468;2023-10-13T01:32:31;4.82;;;2.90;;
6203;SDS011;3135;42.602;23.468;2023-10-13T01:34:56;5.83;;;3.57;;
6203;SDS011;3135;42.602;23.468;2023-10-13T01:37:31;7.80;;;3.35;;
6203;SDS011;3135;42.602;23.468;2023-10-13T01:39:56;6.60;;;3.17;;
6203;SDS011;3135;42.602;23.468;2023-10-13T01:42:22;6.00;;;3.00;;
6203;SDS011;3135;42.602;23.468;2023-10-13T01:44:49;4.93;;;3.33;;
6203;SDS011;3135;42.602;23.468;2023-10-13T01:47:15;6.97;;;3.43;;
6203;SDS011;3135;42.602;23.468;2023-10-13T01:49:44;5.82;;;3.25;;
6203;SDS011;3135;42.602;23.468;2023-10-13T01:52:12;3.85;;;2.80;;
6203;SDS011;3135;42.602;23.468;2023-10-13T01:54:42;4.45;;;2.78;;
6203;SDS011;3135;42.602;23.468;2023-10-13T01:57:11;10.05;;;3.13;;
6203;SDS011;3135;42.602;23.468;2023-10-13T01:59:43;6.00;;;3.10;;
6203;SDS011;3135;42.602;23.468;2023-10-13T02:02:12;5.22;;;3.08;;
6203;SDS011;3135;42.602;23.468;2023-10-13T02:04:38;7.38;;;3.40;;
6203;SDS011;3135;42.602;23.468;2023-10-13T02:07:07;6.88;;;3.20;;
6203;SDS011;3135;42.602;23.468;2023-10-13T02:09:33;5.90;;;3.33;;
6203;SDS011;3135;42.602;23.468;2023-10-13T02:12:02;4.37;;;2.90;;
6203;SDS011;3135;42.602;23.468;2023-10-13T02:14:27;11.80;;;5.90;;
6203;SDS011;3135;42.602;23.468;2023-10-13T02:16:53;8.07;;;4.07;;
6203;SDS011;3135;42.602;23.468;2023-10-13T02:19:36;7.10;;;3.30;;
6203;SDS011;3135;42.602;23.468;2023-10-13T02:22:05;6.40;;;3.83;;
6203;SDS011;3135;42.602;23.468;2023-10-13T02:24:33;7.30;;;3.53;;
6203;SDS011;3135;42.602;23.468;2023-10-13T02:26:59;6.13;;;3.17;;
6203;SDS011;3135;42.602;23.468;2023-10-13T02:29:29;5.67;;;3.20;;
6203;SDS011;3135;42.602;23.468;2023-10-13T02:31:55;6.53;;;3.50;;
6203;SDS011;3135;42.602;23.468;2023-10-13T02:34:21;7.57;;;3.50;;
6203;SDS011;3135;42.602;23.468;2023-10-13T02:36:48;7.80;;;3.35;;
6203;SDS011;3135;42.602;23.468;2023-10-13T02:39:14;7.70;;;3.58;;
6203;SDS011;3135;42.602;23.468;2023-10-13T02:41:41;5.55;;;3.42;;
6203;SDS011;3135;42.602;23.468;2023-10-13T02:44:12;7.53;;;3.75;;
6203;SDS011;3135;42.602;23.468;2023-10-13T02:46:45;5.25;;;3.40;;
6203;SDS011;3135;42.602;23.468;2023-10-13T02:49:15;7.67;;;3.80;;
6203;SDS011;3135;42.602;23.468;2023-10-13T02:51:44;7.22;;;3.63;;
6203;SDS011;3135;42.602;23.468;2023-10-13T02:54:10;8.27;;;3.80;;
6203;SDS011;3135;42.602;23.468;2023-10-13T02:56:36;5.50;;;3.65;;
6203;SDS011;3135;42.602;23.468;2023-10-13T02:59:03;8.23;;;3.87;;
6203;SDS011;3135;42.602;23.468;2023-10-13T03:01:32;7.80;;;3.88;;
6203;SDS011;3135;42.602;23.468;2023-10-13T03:03:59;7.65;;;4.07;;
6203;SDS011;3135;42.602;23.468;2023-10-13T03:06:25;5.97;;;3.53;;
6203;SDS011;3135;42.602;23.468;2023-10-13T03:09:19;5.43;;;3.67;;
6203;SDS011;3135;42.602;23.468;2023-10-13T03:11:46;7.38;;;3.75;;
6203;SDS011;3135;42.602;23.468;2023-10-13T03:14:20;5.57;;;3.47;;
6203;SDS011;3135;42.602;23.468;2023-10-13T03:17:04;6.75;;;3.65;;
6203;SDS011;3135;42.602;23.468;2023-10-13T03:19:31;4.30;;;3.17;;
6203;SDS011;3135;42.602;23.468;2023-10-13T03:22:06;6.28;;;3.17;;
6203;SDS011;3135;42.602;23.468;2023-10-13T03:24:36;5.82;;;3.20;;
6203;SDS011;3135;42.602;23.468;2023-10-13T03:27:09;6.72;;;3.60;;
6203;SDS011;3135;42.602;23.468;2023-10-13T03:29:37;5.38;;;3.63;;
6203;SDS011;3135;42.602;23.468;2023-10-13T03:32:13;5.97;;;3.40;;
6203;SDS011;3135;42.602;23.468;2023-10-13T03:34:44;5.60;;;3.17;;
6203;SDS011;3135;42.602;23.468;2023-10-13T03:37:25;7.25;;;4.10;;
6203;SDS011;3135;42.602;23.468;2023-10-13T03:42:54;8.70;;;3.90;;
6203;SDS011;3135;42.602;23.468;2023-10-13T03:45:30;4.97;;;3.67;;
6203;SDS011;3135;42.602;23.468;2023-10-13T03:48:03;5.00;;;3.20;;
6203;SDS011;3135;42.602;23.468;2023-10-13T03:50:36;9.10;;;3.30;;
6203;SDS011;3135;42.602;23.468;2023-10-13T03:53:12;17.55;;;8.82;;
6203;SDS011;3135;42.602;23.468;2023-10-13T03:55:38;30.60;;;12.60;;
6203;SDS011;3135;42.602;23.468;2023-10-13T03:58:04;14.65;;;6.65;;
6203;SDS011;3135;42.602;23.468;2023-10-13T04:00:30;7.63;;;4.40;;
6203;SDS011;3135;42.602;23.468;2023-10-13T04:02:56;8.20;;;4.13;;
6203;SDS011;3135;42.602;23.468;2023-10-13T04:05:28;9.00;;;4.50;;
6203;SDS011;3135;42.602;23.468;2023-10-13T04:08:07;8.10;;;4.47;;
6203;SDS011;3135;42.602;23.468;2023-10-13T04:10:52;10.82;;;4.15;;
6203;SDS011;3135;42.602;23.468;2023-10-13T04:13:18;9.95;;;4.80;;
6203;SDS011;3135;42.602;23.468;2023-10-13T04:16:03;11.25;;;4.97;;
6203;SDS011;3135;42.602;23.468;2023-10-13T04:18:47;10.07;;;5.47;;
6203;SDS011;3135;42.602;23.468;2023-10-13T04:21:19;10.82;;;4.80;;
6203;SDS011;3135;42.602;23.468;2023-10-13T04:24:06;9.27;;;4.55;;
6203;SDS011;3135;42.602;23.468;2023-10-13T04:26:44;8.17;;;4.67;;
6203;SDS011;3135;42.602;23.468;2023-10-13T04:29:29;9.40;;;4.60;;
6203;SDS011;3135;42.602;23.468;2023-10-13T04:32:15;9.13;;;4.65;;
6203;SDS011;3135;42.602;23.468;2023-10-13T04:34:53;10.27;;;4.68;;
6203;SDS011;3135;42.602;23.468;2023-10-13T04:37:23;11.73;;;4.93;;
6203;SDS011;3135;42.602;23.468;2023-10-13T04:39:55;11.88;;;4.78;;
6203;SDS011;3135;42.602;23.468;2023-10-13T04:42:32;13.27;;;4.80;;
6203;SDS011;3135;42.602;23.468;2023-10-13T04:45:19;13.75;;;5.18;;
6203;SDS011;3135;42.602;23.468;2023-10-13T04:47:57;13.33;;;5.27;;
6203;SDS011;3135;42.602;23.468;2023-10-13T04:50:46;17.23;;;6.22;;
6203;SDS011;3135;42.602;23.468;2023-10-13T04:53:15;10.80;;;5.57;;
6203;SDS011;3135;42.602;23.468;2023-10-13T04:56:20;13.90;;;5.28;;
6203;SDS011;3135;42.602;23.468;2023-10-13T04:59:04;8.70;;;5.00;;
6203;SDS011;3135;42.602;23.468;2023-10-13T05:01:50;12.32;;;4.43;;
6203;SDS011;3135;42.602;23.468;2023-10-13T05:04:33;17.77;;;5.25;;
6203;SDS011;3135;42.602;23.468;2023-10-13T05:07:25;9.57;;;5.00;;
6203;SDS011;3135;42.602;23.468;2023-10-13T05:10:09;11.57;;;4.72;;
6203;SDS011;3135;42.602;23.468;2023-10-13T05:12:53;12.97;;;5.27;;
6203;SDS011;3135;42.602;23.468;2023-10-13T05:16:10;9.93;;;5.38;;
6203;SDS011;3135;42.602;23.468;2023-10-13T05:18:49;14.05;;;6.30;;
6203;SDS011;3135;42.602;23.468;2023-10-13T05:21:33;14.10;;;6.35;;
6203;SDS011;3135;42.602;23.468;2023-10-13T05:24:17;12.82;;;6.57;;
6203;SDS011;3135;42.602;23.468;2023-10-13T05:27:01;16.13;;;6.63;;
6203;SDS011;3135;42.602;23.468;2023-10-13T05:29:45;12.48;;;6.00;;
6203;SDS011;3135;42.602;23.468;2023-10-13T05:32:30;11.52;;;5.57;;
6203;SDS011;3135;42.602;23.468;2023-10-13T05:35:14;12.57;;;6.18;;
6203;SDS011;3135;42.602;23.468;2023-10-13T05:37:59;9.90;;;5.80;;
6203;SDS011;3135;42.602;23.468;2023-10-13T05:43:47;16.30;;;6.93;;
6203;SDS011;3135;42.602;23.468;2023-10-13T05:46:32;13.90;;;6.93;;
6203;SDS011;3135;42.602;23.468;2023-10-13T05:49:01;18.67;;;7.90;;
6203;SDS011;3135;42.602;23.468;2023-10-13T05:51:45;18.27;;;7.93;;
6203;SDS011;3135;42.602;23.468;2023-10-13T05:54:24;16.80;;;8.70;;
6203;SDS011;3135;42.602;23.468;2023-10-13T05:57:08;16.75;;;7.32;;
6203;SDS011;3135;42.602;23.468;2023-10-13T05:59:49;13.48;;;6.85;;
6203;SDS011;3135;42.602;23.468;2023-10-13T06:02:32;14.95;;;7.03;;
6203;SDS011;3135;42.602;23.468;2023-10-13T06:05:16;12.52;;;7.07;;
6203;SDS011;3135;42.602;23.468;2023-10-13T06:08:00;19.33;;;7.63;;
6203;SDS011;3135;42.602;23.468;2023-10-13T06:10:47;14.18;;;7.13;;
6203;SDS011;3135;42.602;23.468;2023-10-13T06:13:31;15.73;;;7.05;;
6203;SDS011;3135;42.602;23.468;2023-10-13T06:16:16;18.08;;;7.30;;
6203;SDS011;3135;42.602;23.468;2023-10-13T06:19:00;12.73;;;6.32;;
6203;SDS011;3135;42.602;23.468;2023-10-13T06:21:45;13.77;;;6.68;;
6203;SDS011;3135;42.602;23.468;2023-10-13T06:24:29;15.77;;;6.72;;
6203;SDS011;3135;42.602;23.468;2023-10-13T06:27:14;10.23;;;5.50;;
6203;SDS011;3135;42.602;23.468;2023-10-13T06:29:59;12.30;;;5.85;;
6203;SDS011;3135;42.602;23.468;2023-10-13T06:32:31;11.60;;;6.50;;
6203;SDS011;3135;42.602;23.468;2023-10-13T06:34:58;11.48;;;6.55;;
6203;SDS011;3135;42.602;23.468;2023-10-13T06:37:30;17.45;;;7.45;;
6203;SDS011;3135;42.602;23.468;2023-10-13T06:39:56;14.85;;;7.20;;
6203;SDS011;3135;42.602;23.468;2023-10-13T06:42:24;13.90;;;6.50;;
6203;SDS011;3135;42.602;23.468;2023-10-13T06:44:54;13.27;;;7.07;;
6203;SDS011;3135;42.602;23.468;2023-10-13T06:47:20;12.98;;;7.40;;
6203;SDS011;3135;42.602;23.468;2023-10-13T06:49:49;15.25;;;7.10;;
6203;SDS011;3135;42.602;23.468;2023-10-13T06:52:22;16.50;;;7.00;;
6203;SDS011;3135;42.602;23.468;2023-10-13T06:54:52;15.93;;;7.85;;
6203;SDS011;3135;42.602;23.468;2023-10-13T06:57:19;14.02;;;7.15;;
6203;SDS011;3135;42.602;23.468;2023-10-13T06:59:47;15.77;;;7.40;;
6203;SDS011;3135;42.602;23.468;2023-10-13T07:02:13;18.65;;;7.10;;
6203;SDS011;3135;42.602;23.468;2023-10-13T07:04:48;14.18;;;6.75;;
6203;SDS011;3135;42.602;23.468;2023-10-13T07:07:22;16.35;;;7.10;;
6203;SDS011;3135;42.602;23.468;2023-10-13T07:09:48;16.60;;;6.85;;
6203;SDS011;3135;42.602;23.468;2023-10-13T07:12:20;13.23;;;6.68;;
6203;SDS011;3135;42.602;23.468;2023-10-13T07:14:51;11.95;;;6.43;;
6203;SDS011;3135;42.602;23.468;2023-10-13T07:17:17;12.20;;;6.70;;
6203;SDS011;3135;42.602;23.468;2023-10-13T07:19:54;17.23;;;7.00;;
6203;SDS011;3135;42.602;23.468;2023-10-13T07:22:30;14.38;;;6.60;;
6203;SDS011;3135;42.602;23.468;2023-10-13T07:25:04;13.35;;;6.78;;
6203;SDS011;3135;42.602;23.468;2023-10-13T07:27:31;16.83;;;7.03;;
6203;SDS011;3135;42.602;23.468;2023-10-13T07:30:00;12.00;;;6.70;;
6203;SDS011;3135;42.602;23.468;2023-10-13T07:32:38;13.52;;;6.50;;
6203;SDS011;3135;42.602;23.468;2023-10-13T07:35:10;15.23;;;6.22;;
6203;SDS011;3135;42.602;23.468;2023-10-13T07:37:48;14.67;;;6.23;;
6203;SDS011;3135;42.602;23.468;2023-10-13T07:40:20;14.48;;;6.50;;
6203;SDS011;3135;42.602;23.468;2023-10-13T07:42:56;14.45;;;7.05;;
6203;SDS011;3135;42.602;23.468;2023-10-13T07:45:36;13.88;;;6.55;;
6203;SDS011;3135;42.602;23.468;2023-10-13T07:48:06;11.43;;;6.28;;
6203;SDS011;3135;42.602;23.468;2023-10-13T07:50:46;15.80;;;7.03;;
6203;SDS011;3135;42.602;23.468;2023-10-13T07:53:13;19.08;;;6.88;;
6203;SDS011;3135;42.602;23.468;2023-10-13T07:55:49;10.82;;;6.22;;
6203;SDS011;3135;42.602;23.468;2023-10-13T07:58:25;14.40;;;6.70;;
6203;SDS011;3135;42.602;23.468;2023-10-13T08:00:51;12.57;;;6.47;;
6203;SDS011;3135;42.602;23.468;2023-10-13T08:03:32;13.15;;;6.25;;
6203;SDS011;3135;42.602;23.468;2023-10-13T08:06:13;15.52;;;6.10;;
6203;SDS011;3135;42.602;23.468;2023-10-13T08:08:43;16.42;;;6.38;;
6203;SDS011;3135;42.602;23.468;2023-10-13T08:11:15;11.55;;;6.07;;
6203;SDS011;3135;42.602;23.468;2023-10-13T08:13:47;11.57;;;5.78;;
6203;SDS011;3135;42.602;23.468;2023-10-13T08:16:19;14.00;;;5.70;;
6203;SDS011;3135;42.602;23.468;2023-10-13T08:18:48;11.43;;;5.63;;
6203;SDS011;3135;42.602;23.468;2023-10-13T08:21:15;11.38;;;5.57;;
6203;SDS011;3135;42.602;23.468;2023-10-13T08:23:50;16.35;;;5.90;;
6203;SDS011;3135;42.602;23.468;2023-10-13T08:26:19;15.48;;;5.95;;
6203;SDS011;3135;42.602;23.468;2023-10-13T08:29:00;10.98;;;5.53;;
6203;SDS011;3135;42.602;23.468;2023-10-13T08:31:46;8.82;;;5.30;;
6203;SDS011;3135;42.602;23.468;2023-10-13T08:34:31;9.93;;;5.13;;
6203;SDS011;3135;42.602;23.468;2023-10-13T08:37:09;8.18;;;4.70;;
6203;SDS011;3135;42.602;23.468;2023-10-13T08:39:56;9.43;;;5.38;;
6203;SDS011;3135;42.602;23.468;2023-10-13T08:42:35;12.15;;;5.38;;
6203;SDS011;3135;42.602;23.468;2023-10-13T08:45:11;11.98;;;5.75;;
6203;SDS011;3135;42.602;23.468;2023-10-13T08:48:06;10.45;;;5.38;;
6203;SDS011;3135;42.602;23.468;2023-10-13T08:50:38;10.35;;;5.65;;
6203;SDS011;3135;42.602;23.468;2023-10-13T08:53:23;8.15;;;5.05;;
6203;SDS011;3135;42.602;23.468;2023-10-13T08:56:07;12.32;;;5.28;;
6203;SDS011;3135;42.602;23.468;2023-10-13T08:58:48;9.90;;;4.90;;
6203;SDS011;3135;42.602;23.468;2023-10-13T09:01:18;9.80;;;5.13;;
6203;SDS011;3135;42.602;23.468;2023-10-13T09:06:44;12.65;;;5.13;;
6203;SDS011;3135;42.602;23.468;2023-10-13T09:09:23;10.88;;;5.00;;
6203;SDS011;3135;42.602;23.468;2023-10-13T09:12:22;11.40;;;5.30;;
6203;SDS011;3135;42.602;23.468;2023-10-13T09:15:01;11.32;;;4.93;;
6203;SDS011;3135;42.602;23.468;2023-10-13T09:17:32;10.50;;;5.07;;
6203;SDS011;3135;42.602;23.468;2023-10-13T09:20:06;9.27;;;5.00;;
6203;SDS011;3135;42.602;23.468;2023-10-13T09:22:49;9.65;;;5.05;;
6203;SDS011;3135;42.602;23.468;2023-10-13T09:25:48;8.10;;;4.50;;
6203;SDS011;3135;42.602;23.468;2023-10-13T09:28:34;10.10;;;4.70;;
6203;SDS011;3135;42.602;23.468;2023-10-13T09:31:02;14.77;;;5.10;;
6203;SDS011;3135;42.602;23.468;2023-10-13T09:33:32;12.27;;;4.88;;
6203;SDS011;3135;42.602;23.468;2023-10-13T09:36:01;10.07;;;5.05;;
6203;SDS011;3135;42.602;23.468;2023-10-13T09:38:31;9.57;;;5.00;;
6203;SDS011;3135;42.602;23.468;2023-10-13T09:40:58;9.45;;;4.95;;
6203;SDS011;3135;42.602;23.468;2023-10-13T09:43:26;8.98;;;4.90;;
6203;SDS011;3135;42.602;23.468;2023-10-13T09:45:59;11.27;;;4.50;;
6203;SDS011;3135;42.602;23.468;2023-10-13T09:48:45;9.73;;;4.82;;
6203;SDS011;3135;42.602;23.468;2023-10-13T09:51:29;9.43;;;4.20;;
6203;SDS011;3135;42.602;23.468;2023-10-13T09:56:40;9.17;;;5.07;;
6203;SDS011;3135;42.602;23.468;2023-10-13T09:59:22;7.20;;;4.70;;
6203;SDS011;3135;42.602;23.468;2023-10-13T10:01:50;8.77;;;4.78;;
6203;SDS011;3135;42.602;23.468;2023-10-13T10:04:17;12.77;;;4.87;;
6203;SDS011;3135;42.602;23.468;2023-10-13T10:06:54;8.70;;;5.00;;
6203;SDS011;3135;42.602;23.468;2023-10-13T10:09:27;20.60;;;5.40;;
6203;SDS011;3135;42.602;23.468;2023-10-13T10:12:07;8.57;;;4.10;;
6203;SDS011;3135;42.602;23.468;2023-10-13T10:17:16;8.88;;;4.05;;
6203;SDS011;3135;42.602;23.468;2023-10-13T10:19:50;9.70;;;3.88;;
6203;SDS011;3135;42.602;23.468;2023-10-13T10:24:58;6.77;;;2.90;;
6203;SDS011;3135;42.602;23.468;2023-10-13T10:27:27;7.50;;;3.60;;
6203;SDS011;3135;42.602;23.468;2023-10-13T10:29:54;8.73;;;3.70;;
6203;SDS011;3135;42.602;23.468;2023-10-13T10:32:20;8.82;;;3.78;;
6203;SDS011;3135;42.602;23.468;2023-10-13T10:34:46;7.97;;;3.60;;
6203;SDS011;3135;42.602;23.468;2023-10-13T10:37:12;5.35;;;3.10;;
6203;SDS011;3135;42.602;23.468;2023-10-13T10:39:38;5.20;;;2.85;;
6203;SDS011;3135;42.602;23.468;2023-10-13T10:42:14;5.40;;;2.78;;
6203;SDS011;3135;42.602;23.468;2023-10-13T10:44:43;4.88;;;2.75;;
6203;SDS011;3135;42.602;23.468;2023-10-13T10:47:09;5.00;;;2.70;;
6203;SDS011;3135;42.602;23.468;2023-10-13T10:49:39;5.53;;;2.83;;
6203;SDS011;3135;42.602;23.468;2023-10-13T10:52:07;5.63;;;2.97;;
6203;SDS011;3135;42.602;23.468;2023-10-13T10:54:43;5.85;;;3.05;;
6203;SDS011;3135;42.602;23.468;2023-10-13T10:57:09;5.15;;;3.47;;
6203;SDS011;3135;42.602;23.468;2023-10-13T10:59:42;7.70;;;3.40;;
6203;SDS011;3135;42.602;23.468;2023-10-13T11:02:08;8.65;;;3.88;;
6203;SDS011;3135;42.602;23.468;2023-10-13T11:04:34;9.47;;;3.70;;
6203;SDS011;3135;42.602;23.468;2023-10-13T11:07:05;4.82;;;2.47;;
6203;SDS011;3135;42.602;23.468;2023-10-13T11:09:32;4.70;;;2.97;;
6203;SDS011;3135;42.602;23.468;2023-10-13T11:14:40;7.38;;;3.25;;
6203;SDS011;3135;42.602;23.468;2023-10-13T11:17:18;6.70;;;2.90;;
6203;SDS011;3135;42.602;23.468;2023-10-13T11:20:11;5.03;;;3.30;;
6203;SDS011;3135;42.602;23.468;2023-10-13T11:22:45;8.52;;;3.20;;
6203;SDS011;3135;42.602;23.468;2023-10-13T11:25:19;8.13;;;3.63;;
6203;SDS011;3135;42.602;23.468;2023-10-13T11:27:54;5.30;;;3.38;;
6203;SDS011;3135;42.602;23.468;2023-10-13T11:30:21;6.10;;;3.08;;
6203;SDS011;3135;42.602;23.468;2023-10-13T11:35:22;5.65;;;2.90;;
6203;SDS011;3135;42.602;23.468;2023-10-13T11:37:51;2.97;;;2.42;;
6203;SDS011;3135;42.602;23.468;2023-10-13T11:40:38;5.43;;;2.60;;
6203;SDS011;3135;42.602;23.468;2023-10-13T11:43:40;4.03;;;2.50;;
6203;SDS011;3135;42.602;23.468;2023-10-13T11:46:21;3.25;;;2.30;;
6203;SDS011;3135;42.602;23.468;2023-10-13T11:49:00;6.32;;;2.33;;
6203;SDS011;3135;42.602;23.468;2023-10-13T11:51:32;6.70;;;2.47;;
6203;SDS011;3135;42.602;23.468;2023-10-13T11:53:58;8.03;;;2.70;;
6203;SDS011;3135;42.602;23.468;2023-10-13T11:56:24;3.72;;;2.10;;
6203;SDS011;3135;42.602;23.468;2023-10-13T11:58:50;5.97;;;2.20;;
6203;SDS011;3135;42.602;23.468;2023-10-13T12:01:16;3.73;;;2.17;;
6203;SDS011;3135;42.602;23.468;2023-10-13T12:04:08;3.33;;;2.33;;
6203;SDS011;3135;42.602;23.468;2023-10-13T12:06:52;2.20;;;2.00;;
6203;SDS011;3135;42.602;23.468;2023-10-13T12:09:37;5.50;;;2.00;;
6203;SDS011;3135;42.602;23.468;2023-10-13T12:12:21;4.68;;;2.17;;
6203;SDS011;3135;42.602;23.468;2023-10-13T12:14:50;2.72;;;2.10;;
6203;SDS011;3135;42.602;23.468;2023-10-13T12:19:59;4.50;;;2.03;;
6203;SDS011;3135;42.602;23.468;2023-10-13T12:22:25;7.13;;;1.90;;
6203;SDS011;3135;42.602;23.468;2023-10-13T12:24:56;3.42;;;2.22;;
6203;SDS011;3135;42.602;23.468;2023-10-13T12:27:22;3.97;;;1.90;;
6203;SDS011;3135;42.602;23.468;2023-10-13T12:30:00;3.75;;;1.95;;
6203;SDS011;3135;42.602;23.468;2023-10-13T12:32:32;4.13;;;1.60;;
6203;SDS011;3135;42.602;23.468;2023-10-13T12:35:01;3.58;;;2.17;;
6203;SDS011;3135;42.602;23.468;2023-10-13T12:37:29;2.67;;;2.03;;
6203;SDS011;3135;42.602;23.468;2023-10-13T12:40:09;6.07;;;2.28;;
6203;SDS011;3135;42.602;23.468;2023-10-13T12:42:56;4.55;;;2.30;;
6203;SDS011;3135;42.602;23.468;2023-10-13T12:45:47;4.37;;;2.10;;
6203;SDS011;3135;42.602;23.468;2023-10-13T12:48:33;3.38;;;1.95;;
6203;SDS011;3135;42.602;23.468;2023-10-13T12:51:19;3.75;;;2.00;;
6203;SDS011;3135;42.602;23.468;2023-10-13T12:53:48;4.38;;;2.00;;
6203;SDS011;3135;42.602;23.468;2023-10-13T12:56:15;4.97;;;2.10;;
6203;SDS011;3135;42.602;23.468;2023-10-13T12:58:41;5.32;;;1.92;;
6203;SDS011;3135;42.602;23.468;2023-10-13T13:01:07;4.65;;;1.90;;
6203;SDS011;3135;42.602;23.468;2023-10-13T13:03:33;6.55;;;2.10;;
6203;SDS011;3135;42.602;23.468;2023-10-13T13:05:59;4.68;;;2.28;;
6203;SDS011;3135;42.602;23.468;2023-10-13T13:08:28;5.23;;;2.00;;
6203;SDS011;3135;42.602;23.468;2023-10-13T13:11:00;5.28;;;1.88;;
6203;SDS011;3135;42.602;23.468;2023-10-13T13:13:26;4.40;;;2.00;;
6203;SDS011;3135;42.602;23.468;2023-10-13T13:15:52;4.07;;;1.90;;
6203;SDS011;3135;42.602;23.468;2023-10-13T13:18:17;2.20;;;1.60;;
6203;SDS011;3135;42.602;23.468;2023-10-13T13:20:44;2.63;;;1.80;;
6203;SDS011;3135;42.602;23.468;2023-10-13T13:23:20;1.85;;;1.55;;
6203;SDS011;3135;42.602;23.468;2023-10-13T13:25:46;3.17;;;1.60;;
6203;SDS011;3135;42.602;23.468;2023-10-13T13:28:12;6.63;;;2.10;;
6203;SDS011;3135;42.602;23.468;2023-10-13T13:30:38;3.92;;;1.60;;
6203;SDS011;3135;42.602;23.468;2023-10-13T13:33:06;4.10;;;1.77;;
6203;SDS011;3135;42.602;23.468;2023-10-13T13:35:40;3.17;;;1.80;;
6203;SDS011;3135;42.602;23.468;2023-10-13T13:38:08;3.63;;;1.85;;
6203;SDS011;3135;42.602;23.468;2023-10-13T13:40:52;3.67;;;1.85;;
6203;SDS011;3135;42.602;23.468;2023-10-13T13:43:19;4.32;;;1.55;;
6203;SDS011;3135;42.602;23.468;2023-10-13T13:46:06;6.00;;;2.00;;
6203;SDS011;3135;42.602;23.468;2023-10-13T13:48:36;4.15;;;1.50;;
6203;SDS011;3135;42.602;23.468;2023-10-13T13:51:05;3.03;;;1.70;;
6203;SDS011;3135;42.602;23.468;2023-10-13T13:53:38;5.70;;;1.88;;
6203;SDS011;3135;42.602;23.468;2023-10-13T13:56:07;11.05;;;1.80;;
6203;SDS011;3135;42.602;23.468;2023-10-13T13:58:33;3.03;;;1.73;;
6203;SDS011;3135;42.602;23.468;2023-10-13T14:01:01;4.00;;;1.77;;
6203;SDS011;3135;42.602;23.468;2023-10-13T14:03:38;5.10;;;1.80;;
6203;SDS011;3135;42.602;23.468;2023-10-13T14:06:10;5.80;;;1.67;;
6203;SDS011;3135;42.602;23.468;2023-10-13T14:08:42;7.05;;;1.85;;
6203;SDS011;3135;42.602;23.468;2023-10-13T14:11:09;5.97;;;1.88;;
6203;SDS011;3135;42.602;23.468;2023-10-13T14:13:38;11.03;;;2.00;;
6203;SDS011;3135;42.602;23.468;2023-10-13T14:16:14;17.02;;;3.08;;
6203;SDS011;3135;42.602;23.468;2023-10-13T14:18:47;74.03;;;18.00;;
6203;SDS011;3135;42.602;23.468;2023-10-13T14:21:13;34.90;;;9.18;;
6203;SDS011;3135;42.602;23.468;2023-10-13T14:23:51;41.08;;;7.10;;
6203;SDS011;3135;42.602;23.468;2023-10-13T14:26:20;35.77;;;6.23;;
6203;SDS011;3135;42.602;23.468;2023-10-13T14:28:49;22.03;;;4.10;;
6203;SDS011;3135;42.602;23.468;2023-10-13T14:31:32;5.83;;;2.10;;
6203;SDS011;3135;42.602;23.468;2023-10-13T14:33:57;8.57;;;2.30;;
6203;SDS011;3135;42.602;23.468;2023-10-13T14:36:24;4.35;;;2.00;;
6203;SDS011;3135;42.602;23.468;2023-10-13T14:38:53;7.60;;;2.20;;
6203;SDS011;3135;42.602;23.468;2023-10-13T14:41:20;12.33;;;2.43;;
6203;SDS011;3135;42.602;23.468;2023-10-13T14:43:45;7.57;;;2.50;;
6203;SDS011;3135;42.602;23.468;2023-10-13T14:46:23;8.30;;;2.00;;
6203;SDS011;3135;42.602;23.468;2023-10-13T14:48:48;3.97;;;1.97;;
6203;SDS011;3135;42.602;23.468;2023-10-13T14:51:17;6.85;;;1.95;;
6203;SDS011;3135;42.602;23.468;2023-10-13T14:53:43;4.23;;;2.00;;
6203;SDS011;3135;42.602;23.468;2023-10-13T14:56:12;5.70;;;2.20;;
6203;SDS011;3135;42.602;23.468;2023-10-13T14:58:39;6.22;;;1.88;;
6203;SDS011;3135;42.602;23.468;2023-10-13T15:01:14;6.50;;;1.77;;
6203;SDS011;3135;42.602;23.468;2023-10-13T15:03:44;2.60;;;1.90;;
6203;SDS011;3135;42.602;23.468;2023-10-13T15:06:16;5.72;;;1.98;;
6203;SDS011;3135;42.602;23.468;2023-10-13T15:08:45;2.90;;;1.90;;
6203;SDS011;3135;42.602;23.468;2023-10-13T15:11:15;3.30;;;1.67;;
6203;SDS011;3135;42.602;23.468;2023-10-13T15:13:43;2.78;;;1.40;;
6203;SDS011;3135;42.602;23.468;2023-10-13T15:16:12;4.67;;;1.67;;
6203;SDS011;3135;42.602;23.468;2023-10-13T15:18:39;3.65;;;1.63;;
6203;SDS011;3135;42.602;23.468;2023-10-13T15:21:05;5.43;;;1.70;;
6203;SDS011;3135;42.602;23.468;2023-10-13T15:23:33;3.13;;;1.50;;
6203;SDS011;3135;42.602;23.468;2023-10-13T15:26:07;1.80;;;1.17;;
6203;SDS011;3135;42.602;23.468;2023-10-13T15:28:34;1.30;;;1.20;;
6203;SDS011;3135;42.602;23.468;2023-10-13T15:31:02;2.67;;;1.30;;
6203;SDS011;3135;42.602;23.468;2023-10-13T15:33:49;2.20;;;1.23;;
6203;SDS011;3135;42.602;23.468;2023-10-13T15:36:17;1.75;;;1.20;;
6203;SDS011;3135;42.602;23.468;2023-10-13T15:38:44;2.22;;;1.00;;
6203;SDS011;3135;42.602;23.468;2023-10-13T15:41:11;4.80;;;0.90;;
6203;SDS011;3135;42.602;23.468;2023-10-13T15:43:37;2.55;;;1.00;;
6203;SDS011;3135;42.602;23.468;2023-10-13T15:46:09;4.90;;;1.00;;
6203;SDS011;3135;42.602;23.468;2023-10-13T15:48:41;1.38;;;1.10;;
6203;SDS011;3135;42.602;23.468;2023-10-13T15:51:11;2.13;;;1.10;;
6203;SDS011;3135;42.602;23.468;2023-10-13T15:53:39;3.93;;;1.00;;
6203;SDS011;3135;42.602;23.468;2023-10-13T15:56:06;5.20;;;1.10;;
6203;SDS011;3135;42.602;23.468;2023-10-13T15:58:54;1.75;;;1.00;;
6203;SDS011;3135;42.602;23.468;2023-10-13T16:01:20;2.67;;;1.00;;